Time;durP1;ratioP1;P1;durP2;ratioP2;P2;SDS_P1;SDS_P2;PMS_P1;PMS_P2;Temp;Humidity;BMP_temperature;BMP_pressure;BME280_temperature;BME280_humidity;BME280_pressure;Samples;Min_cycle;Max_cycle;Signal;HPM_P1;HPM_P2
2021/03/12 00:00:20;;;;;;;40.30;22.73;;;4.20;99.90;;;;;;4949368;29;20214;-73
2021/03/12 00:02:46;;;;;;;34.17;22.77;;;4.20;99.90;;;;;;4951873;28;20213;-72
2021/03/12 00:05:14;;;;;;;35.67;22.90;;;4.20;99.90;;;;;;4952689;28;20229;-72
2021/03/12 00:07:40;;;;;;;33.80;21.93;;;4.20;99.90;;;;;;4952262;28;20292;-73
2021/03/12 00:10:10;;;;;;;36.00;22.87;;;4.20;99.90;;;;;;4950922;29;20257;-73
2021/03/12 00:12:37;;;;;;;33.70;21.50;;;4.20;99.90;;;;;;4947793;29;20304;-73
2021/03/12 00:15:08;;;;;;;37.50;22.47;;;4.20;99.90;;;;;;4950109;28;20313;-73
2021/03/12 00:17:34;;;;;;;39.37;22.77;;;4.20;99.90;;;;;;4945285;28;20292;-72
2021/03/12 00:20:01;;;;;;;37.00;22.30;;;4.20;99.90;;;;;;4946645;28;20240;-73
2021/03/12 00:22:27;;;;;;;38.30;23.60;;;4.20;99.90;;;;;;4952240;28;20292;-73
2021/03/12 00:24:54;;;;;;;32.53;22.33;;;4.30;99.90;;;;;;4956247;29;20215;-72
2021/03/12 00:27:20;;;;;;;35.67;22.83;;;4.30;99.90;;;;;;4954731;28;20296;-73
2021/03/12 00:29:47;;;;;;;36.27;22.90;;;4.30;99.90;;;;;;4949574;28;20304;-72
2021/03/12 00:32:15;;;;;;;35.97;23.40;;;4.30;99.90;;;;;;4953242;28;20210;-71
2021/03/12 00:34:41;;;;;;;34.50;22.00;;;4.30;99.90;;;;;;4953440;28;20730;-72
2021/03/12 00:37:07;;;;;;;35.93;21.87;;;4.30;99.90;;;;;;4951393;28;20705;-72
2021/03/12 00:39:34;;;;;;;35.53;23.13;;;4.30;99.90;;;;;;4951625;29;20221;-73
2021/03/12 00:42:00;;;;;;;35.20;22.50;;;4.30;99.90;;;;;;4950894;28;20734;-72
2021/03/12 00:44:27;;;;;;;37.50;22.53;;;4.20;99.90;;;;;;4952490;28;20264;-72
2021/03/12 00:46:54;;;;;;;34.87;21.77;;;4.30;99.90;;;;;;4954256;28;20346;-72
2021/03/12 00:49:22;;;;;;;35.60;22.23;;;4.30;99.90;;;;;;4954406;28;20220;-71
2021/03/12 00:51:48;;;;;;;35.47;22.10;;;4.30;99.90;;;;;;4954657;28;20304;-73
2021/03/12 00:54:15;;;;;;;37.23;23.33;;;4.30;99.90;;;;;;4950479;28;20236;-72
2021/03/12 00:56:41;;;;;;;36.30;22.60;;;4.30;99.90;;;;;;4954397;28;20268;-73
2021/03/12 00:59:08;;;;;;;37.57;23.77;;;4.30;99.90;;;;;;4954453;29;20315;-72
2021/03/12 01:01:34;;;;;;;34.70;22.30;;;4.30;99.90;;;;;;4951773;28;20703;-72
2021/03/12 01:04:00;;;;;;;33.37;22.23;;;4.30;99.90;;;;;;4957332;28;20209;-72
2021/03/12 01:06:27;;;;;;;33.80;21.50;;;4.40;99.90;;;;;;4951490;28;20296;-72
2021/03/12 01:08:54;;;;;;;34.47;21.33;;;4.40;99.90;;;;;;4953010;28;20205;-73
2021/03/12 01:11:20;;;;;;;33.33;21.30;;;4.40;99.90;;;;;;4950574;28;20300;-72
2021/03/12 01:13:47;;;;;;;37.63;23.07;;;4.40;99.90;;;;;;4953975;28;20712;-72
2021/03/12 01:16:13;;;;;;;36.10;21.53;;;4.40;99.90;;;;;;4949348;28;20215;-72
2021/03/12 01:18:39;;;;;;;35.17;22.30;;;4.50;99.90;;;;;;4952641;28;20241;-72
2021/03/12 01:21:06;;;;;;;33.87;21.70;;;4.50;99.90;;;;;;4952376;28;20645;-73
2021/03/12 01:23:33;;;;;;;35.17;22.13;;;4.50;99.90;;;;;;4954704;28;20759;-72
2021/03/12 01:25:59;;;;;;;33.03;21.67;;;4.50;99.90;;;;;;4952829;29;20297;-72
2021/03/12 01:28:26;;;;;;;35.07;21.20;;;4.50;99.90;;;;;;4955569;28;20209;-73
2021/03/12 01:30:53;;;;;;;37.27;21.77;;;4.60;99.90;;;;;;4951705;28;20220;-72
2021/03/12 01:33:19;;;;;;;36.13;21.97;;;4.60;99.90;;;;;;4953983;28;20208;-71
2021/03/12 01:35:46;;;;;;;34.37;21.17;;;4.60;99.90;;;;;;4946802;28;20218;-72
2021/03/12 01:38:12;;;;;;;34.73;21.30;;;4.60;99.90;;;;;;4952409;28;20312;-73
2021/03/12 01:40:44;;;;;;;34.60;21.10;;;4.60;99.90;;;;;;4953207;28;20217;-72
2021/03/12 01:43:11;;;;;;;31.93;21.23;;;4.60;99.90;;;;;;4955083;28;20213;-72
2021/03/12 01:45:39;;;;;;;32.63;20.63;;;4.60;99.90;;;;;;4950090;28;20212;-72
2021/03/12 01:48:09;;;;;;;30.93;20.97;;;4.70;99.90;;;;;;4953333;28;20234;-72
2021/03/12 01:50:36;;;;;;;34.23;21.47;;;4.60;99.90;;;;;;4948927;28;20545;-73
2021/03/12 01:53:03;;;;;;;31.90;20.07;;;4.70;99.90;;;;;;4948793;29;20912;-72
2021/03/12 01:55:32;;;;;;;32.10;19.93;;;4.70;99.90;;;;;;4947553;28;20209;-72
2021/03/12 01:58:00;;;;;;;30.97;19.17;;;4.80;99.90;;;;;;4950382;29;20655;-72
2021/03/12 02:00:27;;;;;;;28.53;19.20;;;4.80;99.90;;;;;;4954849;28;20293;-75
2021/03/12 02:02:54;;;;;;;31.90;20.47;;;4.80;99.90;;;;;;4949819;28;20570;-75
2021/03/12 02:05:20;;;;;;;28.70;19.00;;;4.90;99.90;;;;;;4950543;28;20230;-75
2021/03/12 02:07:47;;;;;;;29.23;18.97;;;4.80;99.90;;;;;;4948467;28;20259;-75
2021/03/12 02:10:16;;;;;;;30.50;19.07;;;4.80;99.90;;;;;;4951621;28;20575;-74
2021/03/12 02:12:51;;;;;;;30.77;19.27;;;4.80;99.90;;;;;;4949142;29;20205;-74
2021/03/12 02:15:25;;;;;;;26.53;18.23;;;4.90;99.90;;;;;;4948243;28;20226;-74
2021/03/12 02:18:05;;;;;;;26.40;18.10;;;4.80;99.90;;;;;;4946394;29;20339;-74
2021/03/12 02:20:47;;;;;;;27.77;17.00;;;4.80;99.90;;;;;;4948536;28;20348;-74
2021/03/12 02:23:34;;;;;;;24.47;17.37;;;4.90;99.90;;;;;;4947897;29;20717;-75
2021/03/12 02:26:04;;;;;;;25.03;17.03;;;4.90;99.90;;;;;;4947047;29;20210;-74
2021/03/12 02:28:33;;;;;;;25.50;16.83;;;4.90;99.90;;;;;;4948465;28;20221;-75
2021/03/12 02:31:01;;;;;;;25.53;16.47;;;5.00;99.90;;;;;;4951069;29;20205;-75
2021/03/12 02:33:28;;;;;;;26.37;17.30;;;5.00;99.90;;;;;;4945636;28;20241;-74
2021/03/12 02:35:56;;;;;;;24.50;16.33;;;5.00;99.90;;;;;;4951604;29;20865;-75
2021/03/12 02:38:25;;;;;;;25.57;16.67;;;5.10;99.90;;;;;;4949897;28;20594;-76
2021/03/12 02:40:52;;;;;;;25.50;16.03;;;5.10;99.90;;;;;;4946840;29;20206;-74
2021/03/12 02:43:20;;;;;;;26.43;16.97;;;5.10;99.90;;;;;;4948296;28;20209;-73
2021/03/12 02:45:47;;;;;;;23.77;15.80;;;5.20;99.90;;;;;;4949177;28;20209;-74
2021/03/12 02:48:15;;;;;;;23.70;16.23;;;5.20;99.90;;;;;;4952291;28;20208;-75
2021/03/12 02:50:42;;;;;;;22.60;15.90;;;5.20;99.90;;;;;;4951480;28;20333;-74
2021/03/12 02:53:09;;;;;;;25.20;16.77;;;5.30;99.90;;;;;;4953103;29;20217;-75
2021/03/12 02:55:37;;;;;;;21.70;15.90;;;5.30;99.90;;;;;;4952923;28;20228;-74
2021/03/12 02:58:04;;;;;;;25.73;16.73;;;5.30;99.90;;;;;;4949745;28;20220;-74
2021/03/12 03:00:31;;;;;;;23.43;15.43;;;5.30;99.90;;;;;;4947556;28;20217;-75
2021/03/12 03:02:59;;;;;;;25.43;16.33;;;5.30;99.90;;;;;;4951010;29;20205;-74
2021/03/12 03:05:27;;;;;;;23.00;16.03;;;5.30;99.90;;;;;;4949954;28;20217;-74
2021/03/12 03:07:55;;;;;;;22.33;15.47;;;5.30;99.90;;;;;;4951243;29;20216;-75
2021/03/12 03:10:24;;;;;;;21.97;15.17;;;5.30;99.90;;;;;;4952377;28;20299;-74
2021/03/12 03:12:52;;;;;;;21.27;15.00;;;5.30;99.90;;;;;;4949744;28;20547;-75
2021/03/12 03:15:21;;;;;;;21.60;15.23;;;5.20;99.90;;;;;;4950105;28;20648;-75
2021/03/12 03:17:50;;;;;;;22.57;15.63;;;5.20;99.90;;;;;;4952143;28;20213;-72
2021/03/12 03:20:19;;;;;;;24.13;14.93;;;5.20;99.90;;;;;;4947275;28;20373;-73
2021/03/12 03:22:48;;;;;;;23.53;15.33;;;5.20;99.90;;;;;;4947383;28;20584;-74
2021/03/12 03:25:14;;;;;;;23.73;16.03;;;5.20;99.90;;;;;;4948276;28;20213;-75
2021/03/12 03:27:42;;;;;;;24.13;15.80;;;5.20;99.90;;;;;;4948814;28;20569;-75
2021/03/12 03:30:11;;;;;;;21.80;16.23;;;5.20;99.90;;;;;;4942520;29;20201;-73
2021/03/12 03:32:40;;;;;;;23.97;16.07;;;5.20;99.90;;;;;;4946156;28;20340;-74
2021/03/12 03:35:10;;;;;;;23.13;16.17;;;5.20;99.90;;;;;;4954001;28;20296;-74
2021/03/12 03:37:37;;;;;;;20.30;14.93;;;5.20;99.90;;;;;;4948231;28;20209;-74
2021/03/12 03:40:06;;;;;;;22.63;15.40;;;5.20;99.90;;;;;;4951616;28;20245;-74
2021/03/12 03:42:35;;;;;;;20.90;15.07;;;5.20;99.90;;;;;;4949372;29;20218;-74
2021/03/12 03:45:05;;;;;;;21.67;15.40;;;5.10;99.90;;;;;;4947499;29;20209;-74
2021/03/12 03:47:33;;;;;;;25.23;16.00;;;5.10;99.90;;;;;;4945333;29;20304;-75
2021/03/12 03:50:00;;;;;;;20.03;14.57;;;5.10;99.90;;;;;;4948348;29;20745;-75
2021/03/12 03:52:27;;;;;;;22.57;15.53;;;5.10;99.90;;;;;;4946745;29;20644;-74
2021/03/12 03:54:56;;;;;;;24.00;16.27;;;5.10;99.90;;;;;;4951086;28;20236;-74
2021/03/12 03:57:24;;;;;;;20.70;14.27;;;5.10;99.90;;;;;;4954239;28;20213;-75
2021/03/12 03:59:52;;;;;;;22.97;15.40;;;5.10;99.90;;;;;;4954224;28;20628;-74
2021/03/12 04:02:19;;;;;;;19.83;15.00;;;5.00;99.90;;;;;;4949860;28;20556;-73
2021/03/12 04:04:48;;;;;;;21.10;15.30;;;5.00;99.90;;;;;;4952120;28;20292;-73
2021/03/12 04:07:15;;;;;;;18.97;14.07;;;5.00;99.90;;;;;;4955233;28;20211;-74
2021/03/12 04:09:43;;;;;;;21.23;14.57;;;5.00;99.90;;;;;;4949871;29;20232;-74
2021/03/12 04:12:13;;;;;;;23.53;14.67;;;5.00;99.90;;;;;;4952791;28;20217;-75
2021/03/12 04:14:41;;;;;;;19.53;13.80;;;5.00;99.90;;;;;;4953791;28;20316;-74
2021/03/12 04:17:07;;;;;;;20.20;14.27;;;5.00;99.90;;;;;;4955672;28;20647;-75
2021/03/12 04:19:35;;;;;;;21.07;14.40;;;5.00;99.90;;;;;;4952270;28;20277;-73
2021/03/12 04:22:02;;;;;;;22.17;14.93;;;5.00;99.90;;;;;;4952022;29;20224;-75
2021/03/12 04:24:29;;;;;;;23.03;16.33;;;5.00;99.90;;;;;;4950335;28;20301;-73
2021/03/12 04:26:58;;;;;;;21.13;14.53;;;5.10;99.90;;;;;;4951534;29;20206;-74
2021/03/12 04:29:25;;;;;;;22.33;14.30;;;5.10;99.90;;;;;;4951089;28;20715;-74
2021/03/12 04:31:53;;;;;;;23.43;14.67;;;5.10;99.90;;;;;;4950495;28;20222;-73
2021/03/12 04:34:20;;;;;;;20.70;15.30;;;5.10;99.90;;;;;;4949718;28;20252;-75
2021/03/12 04:36:47;;;;;;;25.50;14.97;;;5.10;99.90;;;;;;4949150;28;20296;-73
2021/03/12 04:39:14;;;;;;;25.50;16.00;;;5.10;99.90;;;;;;4951569;28;20225;-74
2021/03/12 04:41:41;;;;;;;21.83;14.47;;;5.10;99.90;;;;;;4949561;28;20267;-75
2021/03/12 04:44:10;;;;;;;20.87;15.43;;;5.00;99.90;;;;;;4954305;28;20272;-74
2021/03/12 04:46:38;;;;;;;23.93;16.87;;;5.10;99.90;;;;;;4952356;28;20220;-74
2021/03/12 04:49:07;;;;;;;23.43;17.17;;;5.10;99.90;;;;;;4952152;28;20201;-74
2021/03/12 04:51:35;;;;;;;23.67;16.47;;;5.10;99.90;;;;;;4951335;28;20220;-75
2021/03/12 04:54:01;;;;;;;23.97;17.03;;;5.10;99.90;;;;;;4953526;29;20244;-75
2021/03/12 04:56:29;;;;;;;22.37;16.30;;;5.10;99.90;;;;;;4954221;28;20619;-74
2021/03/12 04:58:56;;;;;;;23.47;16.23;;;5.20;99.90;;;;;;4953751;29;20225;-75
2021/03/12 05:01:23;;;;;;;23.40;16.57;;;5.20;99.90;;;;;;4952488;28;20214;-75
2021/03/12 05:03:51;;;;;;;26.13;18.13;;;5.20;99.90;;;;;;4948418;28;20237;-74
2021/03/12 05:06:17;;;;;;;23.67;17.77;;;5.30;99.90;;;;;;4948190;29;20205;-74
2021/03/12 05:08:44;;;;;;;23.67;17.63;;;5.30;99.90;;;;;;4948099;28;20272;-74
2021/03/12 05:11:11;;;;;;;24.90;17.07;;;5.30;99.90;;;;;;4947706;28;20213;-75
2021/03/12 05:13:37;;;;;;;25.77;17.03;;;5.30;99.90;;;;;;4951709;28;20264;-74
2021/03/12 05:16:05;;;;;;;24.33;16.73;;;5.40;99.90;;;;;;4946306;28;20268;-74
2021/03/12 05:18:31;;;;;;;24.67;17.40;;;5.40;99.90;;;;;;4953557;28;20248;-75
2021/03/12 05:20:58;;;;;;;26.63;18.33;;;5.40;99.90;;;;;;4952024;29;20296;-74
2021/03/12 05:23:25;;;;;;;24.07;16.87;;;5.50;99.90;;;;;;4948380;29;20211;-74
2021/03/12 05:25:52;;;;;;;23.23;16.27;;;5.40;99.90;;;;;;4948872;28;20248;-71
2021/03/12 05:28:18;;;;;;;25.20;16.27;;;5.50;99.90;;;;;;4953824;28;20227;-70
2021/03/12 05:30:45;;;;;;;22.53;15.50;;;5.50;99.90;;;;;;4951729;28;20218;-71
2021/03/12 05:33:11;;;;;;;23.13;15.07;;;5.50;99.90;;;;;;4953098;28;20628;-71
2021/03/12 05:35:38;;;;;;;20.80;14.33;;;5.50;99.90;;;;;;4952438;28;20286;-71
2021/03/12 05:38:05;;;;;;;20.53;13.67;;;5.50;99.90;;;;;;4952466;29;20684;-71
2021/03/12 05:40:32;;;;;;;19.50;14.27;;;5.50;99.90;;;;;;4952706;28;20330;-72
2021/03/12 05:43:02;;;;;;;17.27;12.57;;;5.50;99.90;;;;;;4951597;28;20244;-73
2021/03/12 05:45:28;;;;;;;17.80;12.20;;;5.50;99.90;;;;;;4951520;28;20205;-71
2021/03/12 05:47:56;;;;;;;18.27;12.30;;;5.60;99.90;;;;;;4951946;28;20213;-72
2021/03/12 05:50:23;;;;;;;23.03;12.47;;;5.60;99.90;;;;;;4947996;28;20575;-71
2021/03/12 05:52:51;;;;;;;19.43;12.87;;;5.60;99.90;;;;;;4951595;29;20689;-70
2021/03/12 05:55:19;;;;;;;18.30;12.63;;;5.70;99.90;;;;;;4948666;29;20221;-71
2021/03/12 05:57:46;;;;;;;21.20;13.37;;;5.70;99.90;;;;;;4952857;28;20217;-72
2021/03/12 06:00:14;;;;;;;19.63;13.20;;;5.80;99.90;;;;;;4953045;28;20716;-72
2021/03/12 06:02:40;;;;;;;19.03;12.67;;;5.80;99.90;;;;;;4950837;28;20252;-72
2021/03/12 06:05:09;;;;;;;19.87;12.63;;;5.80;99.90;;;;;;4949976;28;20316;-71
2021/03/12 06:07:36;;;;;;;19.83;11.73;;;5.80;99.90;;;;;;4946393;29;20227;-70
2021/03/12 06:10:03;;;;;;;17.77;10.70;;;5.80;99.90;;;;;;4952351;28;20213;-71
2021/03/12 06:12:31;;;;;;;14.43;10.03;;;5.80;99.90;;;;;;4947626;29;20224;-71
2021/03/12 06:14:59;;;;;;;17.77;10.97;;;5.80;99.90;;;;;;4947764;28;20229;-71
2021/03/12 06:17:37;;;;;;;15.50;9.33;;;5.80;99.90;;;;;;4950849;28;20202;-71
2021/03/12 06:20:07;;;;;;;12.27;8.23;;;5.90;99.90;;;;;;4951697;28;20295;-72
2021/03/12 06:22:34;;;;;;;13.13;8.63;;;5.90;99.90;;;;;;4948593;28;20263;-71
2021/03/12 06:25:16;;;;;;;11.67;8.67;;;5.90;99.90;;;;;;4950503;28;20284;-72
2021/03/12 06:27:44;;;;;;;13.37;9.93;;;6.00;99.90;;;;;;4951512;29;20729;-72
2021/03/12 06:30:12;;;;;;;15.37;9.50;;;6.00;99.90;;;;;;4947895;28;20217;-71
2021/03/12 06:32:43;;;;;;;16.00;9.97;;;6.00;99.90;;;;;;4949251;28;20237;-71
2021/03/12 06:35:10;;;;;;;12.97;9.17;;;6.00;99.90;;;;;;4949603;28;20205;-71
2021/03/12 06:37:37;;;;;;;15.90;9.33;;;6.00;99.90;;;;;;4947986;29;20258;-70
2021/03/12 06:40:21;;;;;;;14.67;9.50;;;6.00;99.90;;;;;;4950018;28;20224;-72
2021/03/12 06:43:00;;;;;;;15.10;8.97;;;6.10;99.90;;;;;;4951731;28;20205;-73
2021/03/12 06:45:27;;;;;;;15.83;9.70;;;6.10;99.90;;;;;;4951390;28;20654;-70
2021/03/12 06:47:54;;;;;;;15.40;9.80;;;6.20;99.90;;;;;;4950552;28;20205;-71
2021/03/12 06:50:20;;;;;;;14.80;9.03;;;6.20;99.90;;;;;;4950683;28;20205;-71
2021/03/12 06:52:47;;;;;;;15.23;8.83;;;6.20;99.90;;;;;;4949907;28;20376;-74
2021/03/12 06:55:13;;;;;;;12.47;8.10;;;6.20;99.90;;;;;;4949204;28;20205;-69
2021/03/12 06:57:39;;;;;;;14.03;8.13;;;6.30;99.90;;;;;;4950711;28;20249;-69
2021/03/12 07:00:09;;;;;;;13.60;7.80;;;6.30;99.90;;;;;;4951916;28;20233;-69
2021/03/12 07:02:36;;;;;;;14.17;8.33;;;6.30;99.90;;;;;;4948606;29;20251;-70
2021/03/12 07:05:04;;;;;;;13.87;7.93;;;6.30;99.90;;;;;;4950122;29;20220;-70
2021/03/12 07:07:36;;;;;;;15.07;8.47;;;6.40;99.90;;;;;;4946612;28;20218;-70
2021/03/12 07:10:03;;;;;;;11.83;8.30;;;6.40;99.90;;;;;;4950041;28;20237;-71
2021/03/12 07:12:46;;;;;;;11.97;7.87;;;6.40;99.90;;;;;;4949874;28;20209;-73
2021/03/12 07:15:15;;;;;;;14.60;8.73;;;6.40;99.90;;;;;;4946239;29;20279;-69
2021/03/12 07:17:41;;;;;;;16.47;9.47;;;6.40;99.90;;;;;;4947447;29;20324;-71
2021/03/12 07:20:11;;;;;;;14.23;8.87;;;6.50;99.90;;;;;;4949339;28;20240;-72
2021/03/12 07:22:39;;;;;;;15.53;9.37;;;6.50;99.90;;;;;;4949899;29;20213;-71
2021/03/12 07:25:07;;;;;;;15.57;8.57;;;6.60;99.90;;;;;;4947721;28;20260;-73
2021/03/12 07:27:36;;;;;;;12.17;8.57;;;6.60;99.90;;;;;;4942166;29;20300;-72
2021/03/12 07:30:07;;;;;;;11.63;8.03;;;6.60;99.90;;;;;;4948764;28;20248;-72
2021/03/12 07:32:36;;;;;;;13.60;9.63;;;6.60;99.90;;;;;;4956615;28;20237;-72
2021/03/12 07:35:03;;;;;;;14.67;9.87;;;6.50;99.90;;;;;;4957373;28;20213;-72
2021/03/12 07:37:33;;;;;;;15.37;9.73;;;6.50;99.90;;;;;;4955958;28;20295;-71
2021/03/12 07:40:00;;;;;;;13.03;9.50;;;6.50;99.90;;;;;;4954503;28;20229;-71
2021/03/12 07:42:28;;;;;;;13.67;9.20;;;6.50;99.90;;;;;;4957899;28;20276;-70
2021/03/12 07:44:55;;;;;;;17.77;10.33;;;6.60;99.90;;;;;;4956007;29;20204;-72
2021/03/12 07:47:24;;;;;;;12.10;9.47;;;6.60;99.90;;;;;;4956040;28;20209;-71
2021/03/12 07:49:52;;;;;;;15.70;9.60;;;6.60;99.90;;;;;;4952297;28;20209;-72
2021/03/12 07:52:18;;;;;;;14.83;9.93;;;6.60;99.90;;;;;;4952919;28;20208;-71
2021/03/12 07:54:51;;;;;;;13.97;9.90;;;6.70;99.90;;;;;;4956063;28;20572;-73
2021/03/12 07:57:39;;;;;;;25.50;17.97;;;6.70;99.90;;;;;;4955175;29;20217;-72
2021/03/12 08:00:07;;;;;;;13.53;9.60;;;6.70;99.90;;;;;;4954083;28;20225;-72
2021/03/12 08:02:57;;;;;;;14.43;8.97;;;6.70;99.90;;;;;;4952955;28;20215;-71
2021/03/12 08:05:40;;;;;;;15.13;9.57;;;6.70;99.90;;;;;;4954285;29;20212;-72
2021/03/12 08:08:31;;;;;;;16.20;9.17;;;6.70;99.90;;;;;;4953164;28;20652;-73
2021/03/12 08:11:17;;;;;;;13.17;9.13;;;6.80;99.90;;;;;;4948405;28;20210;-75
2021/03/12 08:13:44;;;;;;;13.70;9.00;;;6.70;99.90;;;;;;4946685;28;20304;-72
2021/03/12 08:16:11;;;;;;;13.67;9.10;;;6.80;99.90;;;;;;4953181;28;20353;-74
2021/03/12 08:18:37;;;;;;;13.40;8.37;;;6.80;99.90;;;;;;4953197;28;20229;-73
2021/03/12 08:21:37;;;;;;;15.37;7.57;;;6.80;99.90;;;;;;4955050;28;20295;-74
2021/03/12 08:24:43;;;;;;;12.70;7.67;;;6.90;99.90;;;;;;4950865;28;20261;-74
2021/03/12 08:27:09;;;;;;;13.67;8.13;;;6.90;99.90;;;;;;4954384;28;20216;-74
2021/03/12 08:29:37;;;;;;;9.87;7.53;;;7.00;99.90;;;;;;4954709;28;20209;-71
2021/03/12 08:32:24;;;;;;;9.67;7.07;;;7.00;99.90;;;;;;4953924;28;20241;-74
2021/03/12 08:34:51;;;;;;;11.60;7.73;;;7.00;99.90;;;;;;4954622;29;20596;-72
2021/03/12 08:37:42;;;;;;;12.00;6.70;;;7.00;99.90;;;;;;4953502;28;20276;-72
2021/03/12 08:40:23;;;;;;;10.10;7.33;;;7.10;99.90;;;;;;4952577;28;20221;-76
2021/03/12 08:42:59;;;;;;;9.43;5.97;;;7.10;99.90;;;;;;4950245;28;20246;-71
2021/03/12 08:45:37;;;;;;;11.00;6.77;;;7.20;99.90;;;;;;4946500;28;20554;-71
2021/03/12 08:48:08;;;;;;;8.73;6.70;;;7.20;99.90;;;;;;4951667;29;20229;-71
2021/03/12 08:50:39;;;;;;;10.20;6.60;;;7.30;99.90;;;;;;4948716;28;20223;-72
2021/03/12 08:53:06;;;;;;;10.43;7.33;;;7.40;99.90;;;;;;4948408;28;20209;-70
2021/03/12 08:55:33;;;;;;;8.80;7.47;;;7.50;99.90;;;;;;4948313;29;20215;-70
2021/03/12 08:58:13;;;;;;;11.87;7.00;;;7.50;99.90;;;;;;4954206;28;20342;-72
2021/03/12 09:00:40;;;;;;;8.93;6.40;;;7.60;99.90;;;;;;4948384;28;20794;-74
2021/03/12 09:03:24;;;;;;;12.83;6.50;;;7.80;99.90;;;;;;4947127;28;20669;-74
2021/03/12 09:05:53;;;;;;;9.17;6.50;;;7.90;99.90;;;;;;4954020;28;20228;-74
2021/03/12 09:08:22;;;;;;;12.83;7.40;;;8.00;99.90;;;;;;4951088;28;20294;-74
2021/03/12 09:10:49;;;;;;;10.17;6.63;;;8.10;99.90;;;;;;4946056;28;20218;-73
2021/03/12 09:13:17;;;;;;;8.90;6.37;;;8.10;99.90;;;;;;4945556;28;20213;-72
2021/03/12 09:15:44;;;;;;;13.07;6.43;;;8.10;99.90;;;;;;4941361;28;20689;-72
2021/03/12 09:18:17;;;;;;;9.07;6.37;;;8.10;99.90;;;;;;4942473;28;20236;-73
2021/03/12 09:20:48;;;;;;;9.07;6.40;;;8.10;99.90;;;;;;4950204;28;20702;-75
2021/03/12 09:23:15;;;;;;;7.20;5.10;;;8.10;99.90;;;;;;4950027;28;20284;-76
2021/03/12 09:25:42;;;;;;;10.53;5.90;;;8.10;99.90;;;;;;4949911;28;20261;-74
2021/03/12 09:28:10;;;;;;;9.10;5.93;;;8.10;99.90;;;;;;4952903;28;20602;-75
2021/03/12 09:30:38;;;;;;;9.97;6.33;;;8.10;99.90;;;;;;4955971;28;20244;-75
2021/03/12 09:33:05;;;;;;;8.57;6.27;;;8.00;99.90;;;;;;4949363;28;20252;-75
2021/03/12 09:35:38;;;;;;;6.17;5.47;;;8.00;99.90;;;;;;4959925;28;20217;-75
2021/03/12 09:38:04;;;;;;;7.80;5.83;;;8.00;99.90;;;;;;4958731;28;20265;-75
2021/03/12 09:40:37;;;;;;;8.23;6.10;;;7.90;99.90;;;;;;4958158;28;20323;-75
2021/03/12 09:43:04;;;;;;;8.63;5.87;;;7.90;99.90;;;;;;4957875;28;20222;-75
2021/03/12 09:45:31;;;;;;;8.03;5.60;;;7.90;99.90;;;;;;4951542;28;20312;-75
2021/03/12 09:47:59;;;;;;;9.77;6.13;;;7.90;99.90;;;;;;4950595;28;20261;-74
2021/03/12 09:50:27;;;;;;;8.47;6.43;;;7.90;99.90;;;;;;4954701;28;20202;-75
2021/03/12 09:52:56;;;;;;;13.77;6.57;;;7.90;99.90;;;;;;4944123;28;20264;-74
2021/03/12 09:55:24;;;;;;;11.23;6.50;;;7.90;99.90;;;;;;4946713;28;20502;-75
2021/03/12 09:57:51;;;;;;;8.70;6.33;;;8.00;99.90;;;;;;4951137;28;20656;-75
2021/03/12 10:00:23;;;;;;;10.50;7.20;;;8.20;99.90;;;;;;4948777;28;20277;-75
2021/03/12 10:02:51;;;;;;;7.87;6.17;;;8.30;99.90;;;;;;4953022;28;20304;-75
2021/03/12 10:05:19;;;;;;;9.50;6.43;;;8.30;99.90;;;;;;4947422;28;20310;-75
2021/03/12 10:07:47;;;;;;;10.20;5.90;;;8.30;99.90;;;;;;4951078;28;20388;-75
2021/03/12 10:10:20;;;;;;;9.93;6.50;;;8.30;99.90;;;;;;4954751;28;20255;-76
2021/03/12 10:12:50;;;;;;;8.67;6.77;;;8.20;99.90;;;;;;4952179;28;20209;-75
2021/03/12 10:15:18;;;;;;;10.13;7.00;;;8.10;99.90;;;;;;4953401;28;20633;-75
2021/03/12 10:17:46;;;;;;;8.33;6.30;;;8.00;99.90;;;;;;4953083;28;20708;-75
2021/03/12 10:20:22;;;;;;;9.67;6.03;;;8.00;99.90;;;;;;4952131;28;20250;-75
2021/03/12 10:22:52;;;;;;;7.93;6.10;;;7.90;99.90;;;;;;4952373;28;20251;-75
2021/03/12 10:25:21;;;;;;;7.80;5.50;;;7.80;99.90;;;;;;4951093;28;20210;-75
2021/03/12 10:27:49;;;;;;;7.73;5.43;;;7.70;99.90;;;;;;4949810;28;20672;-76
2021/03/12 10:30:21;;;;;;;8.43;5.60;;;7.60;99.90;;;;;;4952556;28;20275;-75
2021/03/12 10:32:50;;;;;;;7.10;4.87;;;7.50;99.90;;;;;;4952124;28;20309;-75
2021/03/12 10:35:23;;;;;;;7.73;5.23;;;7.50;99.90;;;;;;4980910;28;20217;-76
2021/03/12 10:37:50;;;;;;;6.53;4.97;;;7.50;99.90;;;;;;4948111;28;20690;-74
2021/03/12 10:40:19;;;;;;;7.57;5.30;;;7.60;99.90;;;;;;4947691;28;20332;-74
2021/03/12 10:42:45;;;;;;;10.23;5.40;;;7.60;99.90;;;;;;4949128;28;20210;-76
2021/03/12 10:45:22;;;;;;;7.17;4.80;;;7.60;99.90;;;;;;4947013;28;20262;-75
2021/03/12 10:47:59;;;;;;;8.27;5.07;;;7.60;99.90;;;;;;4947698;29;20297;-75
2021/03/12 10:50:29;;;;;;;7.47;4.73;;;7.50;99.90;;;;;;4942503;29;20292;-76
2021/03/12 10:53:16;;;;;;;6.90;4.70;;;7.50;99.90;;;;;;4946177;29;20237;-76
2021/03/12 10:55:44;;;;;;;6.30;3.90;;;7.60;99.90;;;;;;4946387;28;20300;-75
2021/03/12 10:58:40;;;;;;;5.30;3.90;;;7.90;99.90;;;;;;4949946;28;20313;-78
2021/03/12 11:01:23;;;;;;;5.37;3.17;;;8.20;99.90;;;;;;4947960;29;20229;-76
2021/03/12 11:03:54;;;;;;;6.60;3.80;;;8.40;99.90;;;;;;4949868;28;20260;-76
2021/03/12 11:06:31;;;;;;;6.07;3.20;;;9.10;99.90;;;;;;4938254;29;20297;-75
2021/03/12 11:09:09;;;;;;;6.87;3.80;;;10.10;99.90;;;;;;4945911;28;20273;-74
2021/03/12 11:11:36;;;;;;;7.70;3.23;;;11.60;99.90;;;;;;4939049;29;20212;-74
2021/03/12 11:14:06;;;;;;;4.90;3.30;;;12.50;99.90;;;;;;4943454;29;20226;-75
2021/03/12 11:16:33;;;;;;;4.77;3.37;;;12.60;99.90;;;;;;4942810;29;20299;-75
2021/03/12 11:19:00;;;;;;;3.60;2.97;;;12.50;99.90;;;;;;4940136;28;20288;-75
2021/03/12 11:22:01;;;;;;;6.60;3.23;;;12.60;99.90;;;;;;4946012;29;20213;-75
2021/03/12 11:24:37;;;;;;;9.37;3.70;;;13.50;99.90;;;;;;4933524;28;20245;-75
2021/03/12 11:27:20;;;;;;;7.30;3.73;;;13.80;99.90;;;;;;4946387;28;20216;-75
2021/03/12 11:30:00;;;;;;;5.80;3.63;;;13.40;98.00;;;;;;4944262;28;20235;-76
2021/03/12 11:32:39;;;;;;;6.90;3.70;;;13.40;99.90;;;;;;4940754;29;20205;-76
2021/03/12 11:35:13;;;;;;;5.00;3.30;;;15.00;99.90;;;;;;4935505;29;20221;-76
2021/03/12 11:37:39;;;;;;;6.80;3.73;;;17.40;88.10;;;;;;4949048;29;20270;-76
2021/03/12 11:40:33;;;;;;;3.70;3.10;;;19.50;72.40;;;;;;4939674;29;20617;-75
2021/03/12 11:43:08;;;;;;;4.97;3.40;;;19.80;61.50;;;;;;4940925;29;20234;-77
2021/03/12 11:45:35;;;;;;;5.93;3.40;;;19.00;57.00;;;;;;4943380;28;20292;-73
2021/03/12 11:48:04;;;;;;;4.67;3.63;;;17.60;57.70;;;;;;4939353;29;20249;-77
2021/03/12 11:50:33;;;;;;;10.17;3.50;;;16.30;60.50;;;;;;4937157;29;20292;-76
2021/03/12 11:53:02;;;;;;;4.93;3.87;;;15.20;64.70;;;;;;4940942;28;20683;-72
2021/03/12 11:55:34;;;;;;;6.57;4.20;;;14.20;69.30;;;;;;4943720;29;20253;-72
2021/03/12 12:04:18;;;;;;;5.37;4.10;;;14.80;95.40;;;;;;4938597;28;20237;-71
2021/03/12 12:06:58;;;;;;;8.40;4.47;;;17.70;82.90;;;;;;4941040;28;20221;-74
2021/03/12 12:09:25;;;;;;;5.77;3.87;;;20.40;68.30;;;;;;4949241;28;20209;-71
2021/03/12 12:15:04;;;;;;;6.60;3.53;;;24.80;47.60;;;;;;4941354;29;20543;-73
2021/03/12 12:17:52;;;;;;;6.80;3.95;;;24.90;45.40;;;;;;4948307;28;20280;-75
2021/03/12 12:20:48;;;;;;;5.35;3.75;;;24.00;44.70;;;;;;4951657;28;20233;-72
2021/03/12 12:23:25;;;;;;;7.22;2.95;;;23.30;46.30;;;;;;4949724;29;20205;-75
2021/03/12 12:25:52;;;;;;;5.38;3.20;;;22.60;44.80;;;;;;4953644;28;20202;-73
2021/03/12 12:28:19;;;;;;;5.50;3.58;;;21.40;43.90;;;;;;4947315;29;20293;-74
2021/03/12 12:30:46;;;;;;;6.60;3.28;;;19.80;45.10;;;;;;4949089;28;20745;-74
2021/03/12 12:33:13;;;;;;;5.65;4.00;;;18.30;46.80;;;;;;4942923;29;20214;-75
2021/03/12 12:35:41;;;;;;;8.00;3.70;;;17.00;49.40;;;;;;4948373;29;20244;-73
2021/03/12 12:38:09;;;;;;;7.50;3.63;;;16.00;51.80;;;;;;4939631;29;20217;-74
2021/03/12 12:40:37;;;;;;;7.27;2.90;;;15.20;53.20;;;;;;4946455;28;20245;-72
2021/03/12 12:43:05;;;;;;;7.23;3.27;;;14.60;54.60;;;;;;4942049;28;20213;-73
2021/03/12 12:45:33;;;;;;;5.77;3.37;;;14.40;61.90;;;;;;4947559;29;20210;-72
2021/03/12 12:48:00;;;;;;;8.40;3.40;;;14.80;60.50;;;;;;4948762;28;20240;-71
2021/03/12 12:50:30;;;;;;;5.33;3.40;;;16.60;59.90;;;;;;4953972;29;20240;-74
2021/03/12 12:52:58;;;;;;;5.90;4.60;;;18.80;55.20;;;;;;4942646;28;20224;-73
2021/03/12 12:55:26;;;;;;;7.63;4.43;;;20.90;50.90;;;;;;4949174;28;20209;-72
2021/03/12 12:57:57;;;;;;;5.83;3.40;;;22.50;47.00;;;;;;4942356;28;20690;-71
2021/03/12 13:00:25;;;;;;;5.80;3.57;;;22.40;45.40;;;;;;4946034;28;20357;-73
2021/03/12 13:02:52;;;;;;;4.70;3.03;;;22.00;44.90;;;;;;4944424;29;20665;-72
2021/03/12 13:05:22;;;;;;;5.33;3.20;;;20.70;44.70;;;;;;4941320;28;20202;-71